createdAt,value
2023-01-11T00:00:00.000Z,72.23
2023-01-11T00:15:00.000Z,71.78
2023-01-11T00:30:00.000Z,71.4
2023-01-11T00:45:00.000Z,70.58
2023-01-11T01:00:00.000Z,69.6
2023-01-11T01:15:00.000Z,68.4
2023-01-11T01:30:00.000Z,67.24
2023-01-11T01:45:00.000Z,66.72
2023-01-11T02:00:00.000Z,66.35
2023-01-11T02:15:00.000Z,66.44
2023-01-11T02:30:00.000Z,65.37
2023-01-11T02:45:00.000Z,64.87
2023-01-11T03:00:00.000Z,63.82
2023-01-11T03:15:00.000Z,64.22
2023-01-11T03:30:00.000Z,63.65
2023-01-11T03:45:00.000Z,63.31
2023-01-11T04:00:00.000Z,62.53
2023-01-11T04:15:00.000Z,62.16
2023-01-11T04:30:00.000Z,62.06
2023-01-11T04:45:00.000Z,61.8
2023-01-11T05:00:00.000Z,64.96
2023-01-11T05:15:00.000Z,71.99
2023-01-11T05:30:00.000Z,75.97
2023-01-11T05:45:00.000Z,77.25
2023-01-11T06:00:00.000Z,78.28
2023-01-11T06:15:00.000Z,77.17
2023-01-11T06:30:00.000Z,69.3
2023-01-11T06:45:00.000Z,68.31
2023-01-11T07:00:00.000Z,67.39
2023-01-11T07:15:00.000Z,66.05
2023-01-11T07:30:00.000Z,65.58
2023-01-11T07:45:00.000Z,65.55
2023-01-11T08:00:00.000Z,64.1
2023-01-11T08:15:00.000Z,63.59
2023-01-11T08:30:00.000Z,62.94
2023-01-11T08:45:00.000Z,62.45
2023-01-11T09:00:00.000Z,61.94
2023-01-11T09:15:00.000Z,61.57
2023-01-11T09:30:00.000Z,61.43
2023-01-11T09:45:00.000Z,60.97
2023-01-11T10:00:00.000Z,60.89
2023-01-11T10:15:00.000Z,60.71
2023-01-11T10:30:00.000Z,59.48
2023-01-11T10:45:00.000Z,58.59
2023-01-11T11:00:00.000Z,58.1
2023-01-11T11:15:00.000Z,57.89
2023-01-11T11:30:00.000Z,58.05
2023-01-11T11:45:00.000Z,58.63
2023-01-11T12:00:00.000Z,58.42
2023-01-11T12:15:00.000Z,58.05
2023-01-11T12:30:00.000Z,57.51
2023-01-11T12:45:00.000Z,57.21
2023-01-11T13:00:00.000Z,57.69
2023-01-11T13:15:00.000Z,57.52
2023-01-11T13:30:00.000Z,57.85
2023-01-11T13:45:00.000Z,58.78
2023-01-11T14:00:00.000Z,59.35
2023-01-11T14:15:00.000Z,59.64
2023-01-11T14:30:00.000Z,59.56
2023-01-11T14:45:00.000Z,59.92
2023-01-11T15:00:00.000Z,60.17
2023-01-11T15:15:00.000Z,61
2023-01-11T15:30:00.000Z,61.33
2023-01-11T15:45:00.000Z,61.01
2023-01-11T16:00:00.000Z,61.47
2023-01-11T16:15:00.000Z,61.98
2023-01-11T16:30:00.000Z,63.58
2023-01-11T16:45:00.000Z,65.97
2023-01-11T17:00:00.000Z,68.55
2023-01-11T17:15:00.000Z,69.62
2023-01-11T17:30:00.000Z,72.06
2023-01-11T17:45:00.000Z,74.72
2023-01-11T18:00:00.000Z,76.33
2023-01-11T18:15:00.000Z,78
2023-01-11T18:30:00.000Z,79.42
2023-01-11T18:45:00.000Z,79.84
2023-01-11T19:00:00.000Z,81.26
2023-01-11T19:15:00.000Z,81.55
2023-01-11T19:30:00.000Z,81.51
2023-01-11T19:45:00.000Z,82.02
2023-01-11T20:00:00.000Z,83.7
2023-01-11T20:15:00.000Z,85.02
2023-01-11T20:30:00.000Z,85.4
2023-01-11T20:45:00.000Z,85.37
2023-01-11T21:00:00.000Z,84.7
2023-01-11T21:15:00.000Z,84.55
2023-01-11T21:30:00.000Z,84.86
2023-01-11T21:45:00.000Z,84.73
2023-01-11T22:00:00.000Z,84.52
2023-01-11T22:15:00.000Z,83.92
2023-01-11T22:30:00.000Z,84.28
2023-01-11T22:45:00.000Z,84.4
2023-01-11T23:00:00.000Z,84.05
2023-01-11T23:15:00.000Z,83.87
2023-01-11T23:30:00.000Z,83.78
2023-01-11T23:45:00.000Z,84.03
